createdAt,value
2023-05-06T00:01:01.303Z,11.60
2023-05-06T00:03:28.569Z,11.50
2023-05-06T00:05:55.537Z,11.46
2023-05-06T00:08:22.318Z,11.40
2023-05-06T00:10:48.849Z,11.35
2023-05-06T00:13:16.077Z,11.46
2023-05-06T00:15:42.674Z,11.43
2023-05-06T00:18:09.553Z,11.30
2023-05-06T00:20:36.265Z,11.14
2023-05-06T00:23:03.223Z,11.12
2023-05-06T00:25:29.696Z,11.13
2023-05-06T00:27:56.292Z,11.23
2023-05-06T00:30:23.079Z,11.21
2023-05-06T00:32:49.730Z,11.07
2023-05-06T00:35:16.404Z,11.13
2023-05-06T00:37:49.009Z,11.20
2023-05-06T00:40:15.848Z,11.17
2023-05-06T00:42:42.219Z,11.11
2023-05-06T00:45:09.331Z,11.01
2023-05-06T00:47:36.475Z,10.94
2023-05-06T00:50:03.136Z,10.97
2023-05-06T00:52:30.203Z,10.83
2023-05-06T00:54:57.207Z,10.73
2023-05-06T00:57:24.622Z,10.54
2023-05-06T00:59:51.136Z,10.77
2023-05-06T01:02:17.733Z,10.88
2023-05-06T01:04:45.185Z,10.71
2023-05-06T01:07:20.920Z,10.64
2023-05-06T01:09:55.836Z,10.56
2023-05-06T01:12:43.882Z,10.49
2023-05-06T01:15:16.491Z,10.45
2023-05-06T01:17:46.654Z,10.44
2023-05-06T01:20:15.130Z,10.45
2023-05-06T01:22:42.296Z,10.45
2023-05-06T01:25:18.497Z,10.39
2023-05-06T01:27:45.390Z,10.36
2023-05-06T01:30:13.319Z,10.36
2023-05-06T01:32:50.294Z,10.42
2023-05-06T01:35:40.789Z,10.38
2023-05-06T01:38:18.579Z,10.29
2023-05-06T01:40:49.893Z,10.22
2023-05-06T01:43:18.482Z,10.17
2023-05-06T01:45:49.415Z,10.14
2023-05-06T01:48:17.034Z,10.18
2023-05-06T01:50:43.619Z,10.18
2023-05-06T01:53:10.545Z,10.27
2023-05-06T01:55:37.003Z,10.16
2023-05-06T01:58:03.883Z,10.06
2023-05-06T02:00:30.589Z,10.07
2023-05-06T02:02:57.088Z,10.13
2023-05-06T02:05:23.943Z,10.11
2023-05-06T02:07:51.425Z,10.12
2023-05-06T02:10:19.046Z,10.13
2023-05-06T02:12:45.960Z,10.17
2023-05-06T02:15:12.695Z,10.12
2023-05-06T02:17:39.170Z,10.18
2023-05-06T02:20:06.818Z,10.18
2023-05-06T02:22:33.878Z,10.14
2023-05-06T02:25:01.056Z,10.15
2023-05-06T02:27:27.646Z,10.18
2023-05-06T02:29:54.184Z,10.16
2023-05-06T02:32:21.018Z,10.10
2023-05-06T02:34:47.668Z,10.08
2023-05-06T02:37:14.233Z,10.06
2023-05-06T02:39:40.957Z,9.97
2023-05-06T02:42:07.458Z,9.92
2023-05-06T02:44:33.892Z,9.86
2023-05-06T02:47:00.611Z,9.81
2023-05-06T02:49:27.526Z,9.80
2023-05-06T02:51:54.241Z,9.87
2023-05-06T02:54:21.047Z,10.07
2023-05-06T02:56:47.722Z,10.05
2023-05-06T02:59:14.303Z,9.83
2023-05-06T03:01:40.894Z,9.74
2023-05-06T03:04:08.039Z,9.70
2023-05-06T03:06:35.136Z,9.72
2023-05-06T03:09:02.168Z,9.68
2023-05-06T03:11:31.426Z,9.67
2023-05-06T03:13:58.380Z,9.73
2023-05-06T03:16:25.106Z,9.73
2023-05-06T03:18:51.677Z,9.65
2023-05-06T03:21:18.305Z,9.61
2023-05-06T03:23:44.954Z,9.54
2023-05-06T03:26:11.421Z,9.39
2023-05-06T03:28:38.126Z,9.39
2023-05-06T03:31:04.771Z,9.47
2023-05-06T03:33:31.242Z,9.34
2023-05-06T03:35:57.865Z,9.24
2023-05-06T03:38:26.184Z,9.30
2023-05-06T03:40:53.400Z,9.30
2023-05-06T03:43:20.004Z,9.28
2023-05-06T03:45:46.801Z,9.13
2023-05-06T03:48:13.455Z,9.22
2023-05-06T03:50:40.665Z,9.19
2023-05-06T03:53:07.250Z,9.15
2023-05-06T03:55:33.998Z,9.14
2023-05-06T03:58:01.277Z,9.01
2023-05-06T04:00:28.435Z,8.99
2023-05-06T04:02:55.198Z,8.99
2023-05-06T04:05:21.747Z,9.04
2023-05-06T04:07:48.832Z,9.02
2023-05-06T04:10:15.469Z,9.07
2023-05-06T04:12:41.939Z,9.07
2023-05-06T04:15:09.105Z,9.10
2023-05-06T04:17:36.068Z,9.14
2023-05-06T04:20:11.165Z,9.12
2023-05-06T04:22:38.702Z,9.09
2023-05-06T04:25:05.499Z,9.21
2023-05-06T04:27:32.332Z,9.18
2023-05-06T04:29:58.924Z,9.20
2023-05-06T04:32:25.504Z,9.17
2023-05-06T04:34:53.514Z,9.22
2023-05-06T04:37:21.053Z,9.28
2023-05-06T04:39:47.618Z,9.26
2023-05-06T04:42:16.011Z,9.32
2023-05-06T04:44:43.513Z,9.28
2023-05-06T04:47:10.123Z,9.32
2023-05-06T04:49:36.917Z,9.38
2023-05-06T04:52:04.105Z,9.26
2023-05-06T04:54:30.751Z,9.23
2023-05-06T04:56:57.445Z,9.23
2023-05-06T04:59:24.171Z,9.26
2023-05-06T05:01:50.755Z,9.29
2023-05-06T05:04:17.737Z,9.39
2023-05-06T05:06:44.587Z,9.54
2023-05-06T05:09:11.113Z,9.45
2023-05-06T05:11:40.593Z,9.66
2023-05-06T05:14:07.099Z,9.76
2023-05-06T05:16:33.686Z,9.83
2023-05-06T05:19:03.320Z,10.00
2023-05-06T05:21:30.497Z,10.07
2023-05-06T05:23:56.990Z,10.13
2023-05-06T05:26:23.692Z,10.22
2023-05-06T05:28:50.326Z,10.54
2023-05-06T05:31:17.056Z,10.63
2023-05-06T05:33:44.060Z,10.63
2023-05-06T05:36:12.359Z,10.86
2023-05-06T05:38:39.035Z,11.04
2023-05-06T05:41:05.672Z,10.97
2023-05-06T05:43:32.658Z,10.81
2023-05-06T05:45:59.023Z,10.89
2023-05-06T05:48:25.774Z,10.85
2023-05-06T05:50:52.494Z,10.79
2023-05-06T05:53:19.230Z,10.90
2023-05-06T05:55:45.662Z,10.85
2023-05-06T05:58:13.333Z,10.90
2023-05-06T06:00:39.990Z,10.86
2023-05-06T06:03:07.050Z,10.87
2023-05-06T06:05:33.742Z,10.86
2023-05-06T06:08:03.627Z,10.81
2023-05-06T06:10:30.620Z,10.78
2023-05-06T06:12:57.619Z,10.80
2023-05-06T06:15:23.970Z,10.85
2023-05-06T06:17:53.657Z,10.84
2023-05-06T06:20:20.597Z,11.00
2023-05-06T06:22:47.174Z,11.21
2023-05-06T06:25:14.214Z,11.32
2023-05-06T06:27:40.952Z,11.43
2023-05-06T06:30:07.946Z,11.76
2023-05-06T06:32:35.670Z,12.01
2023-05-06T06:35:02.222Z,12.19
2023-05-06T06:37:29.385Z,12.35
2023-05-06T06:39:55.916Z,13.33
2023-05-06T06:42:22.458Z,14.19
2023-05-06T06:44:49.916Z,14.26
2023-05-06T06:47:16.309Z,14.22
2023-05-06T06:49:43.211Z,14.38
2023-05-06T06:52:09.606Z,13.98
2023-05-06T06:54:37.974Z,14.06
2023-05-06T06:57:08.519Z,13.52
2023-05-06T06:59:35.554Z,13.31
2023-05-06T07:02:03.094Z,13.32
2023-05-06T07:04:30.692Z,13.36
2023-05-06T07:06:57.200Z,13.33
2023-05-06T07:09:24.062Z,13.47
2023-05-06T07:11:50.513Z,13.36
2023-05-06T07:14:16.900Z,13.53
2023-05-06T07:16:45.909Z,13.41
2023-05-06T07:19:13.181Z,13.26
2023-05-06T07:21:39.827Z,13.18
2023-05-06T07:24:06.808Z,13.28
2023-05-06T07:26:36.991Z,13.53
2023-05-06T07:29:04.563Z,13.47
2023-05-06T07:31:34.261Z,13.68
2023-05-06T07:34:01.607Z,14.06
2023-05-06T07:36:31.343Z,14.27
2023-05-06T07:38:57.866Z,14.49
2023-05-06T07:41:24.583Z,14.65
2023-05-06T07:43:51.368Z,14.71
2023-05-06T07:46:18.056Z,15.24
2023-05-06T07:48:44.612Z,15.88
2023-05-06T07:51:11.217Z,16.64
2023-05-06T07:53:40.018Z,16.70
2023-05-06T07:56:06.761Z,16.83
2023-05-06T07:58:33.360Z,17.08
2023-05-06T08:01:00.164Z,17.09
2023-05-06T08:03:27.341Z,17.04
2023-05-06T08:05:55.180Z,17.17
2023-05-06T08:08:23.603Z,16.96
2023-05-06T08:10:50.108Z,16.95
2023-05-06T08:13:16.540Z,17.17
2023-05-06T08:15:43.086Z,16.76
2023-05-06T08:18:21.023Z,16.70
2023-05-06T08:20:49.085Z,16.52
2023-05-06T08:23:15.620Z,16.43
2023-05-06T08:25:42.207Z,17.03
2023-05-06T08:28:08.998Z,17.18
2023-05-06T08:30:35.802Z,17.59
2023-05-06T08:33:02.529Z,17.12
2023-05-06T08:35:29.219Z,17.28
2023-05-06T08:37:56.157Z,17.82
2023-05-06T08:40:24.081Z,17.64
2023-05-06T08:42:50.748Z,17.81
2023-05-06T08:45:17.923Z,17.46
2023-05-06T08:47:45.054Z,17.57
2023-05-06T08:50:12.621Z,18.02
2023-05-06T08:52:39.850Z,18.23
2023-05-06T08:55:07.734Z,18.66
2023-05-06T08:57:34.958Z,18.39
2023-05-06T09:00:02.260Z,18.20
2023-05-06T09:02:29.485Z,17.90
2023-05-06T09:04:56.889Z,17.93
2023-05-06T09:07:24.173Z,17.82
2023-05-06T09:09:51.525Z,17.74
2023-05-06T09:12:18.454Z,17.89
2023-05-06T09:14:46.571Z,18.08
2023-05-06T09:17:26.327Z,18.15
2023-05-06T09:19:54.509Z,18.53
2023-05-06T09:22:22.129Z,18.71
2023-05-06T09:24:56.657Z,18.64
2023-05-06T09:27:24.081Z,18.90
2023-05-06T09:30:07.389Z,18.58
2023-05-06T09:32:37.480Z,19.16
2023-05-06T09:35:07.424Z,18.32
2023-05-06T09:37:34.410Z,18.13
2023-05-06T09:40:01.242Z,18.27
2023-05-06T09:42:31.256Z,18.58
2023-05-06T09:45:01.938Z,19.04
2023-05-06T09:47:34.074Z,19.18
2023-05-06T09:50:02.706Z,19.62
2023-05-06T09:52:30.759Z,19.57
2023-05-06T09:54:57.841Z,19.95
2023-05-06T09:57:25.761Z,19.71
2023-05-06T09:59:54.059Z,20.27
2023-05-06T10:02:22.813Z,20.72
2023-05-06T10:04:50.914Z,20.64
2023-05-06T10:07:22.601Z,20.88
2023-05-06T10:09:51.333Z,20.99
2023-05-06T10:12:19.868Z,20.94
2023-05-06T10:14:47.270Z,21.70
2023-05-06T10:17:14.269Z,22.14
2023-05-06T10:19:45.364Z,23.02
2023-05-06T10:22:39.197Z,23.22
2023-05-06T10:25:13.041Z,22.85
2023-05-06T10:27:41.886Z,24.76
2023-05-06T10:30:10.260Z,25.03
2023-05-06T10:32:42.870Z,26.58
2023-05-06T10:35:21.729Z,26.13
2023-05-06T10:37:51.580Z,26.82
2023-05-06T10:40:19.026Z,26.82
2023-05-06T10:42:45.700Z,27.74
2023-05-06T10:45:15.160Z,26.75
2023-05-06T10:47:56.809Z,27.31
2023-05-06T10:50:27.527Z,24.37
2023-05-06T10:52:56.296Z,22.88
2023-05-06T10:55:37.776Z,22.07
2023-05-06T10:58:13.693Z,22.09
2023-05-06T11:00:44.153Z,21.48
2023-05-06T11:03:13.310Z,21.85
2023-05-06T11:05:51.455Z,21.79
2023-05-06T11:08:22.263Z,21.85
2023-05-06T11:10:48.952Z,21.73
2023-05-06T11:13:27.281Z,21.06
2023-05-06T11:15:55.753Z,21.12
2023-05-06T11:18:26.751Z,20.54
2023-05-06T11:21:02.672Z,21.21
2023-05-06T11:23:52.223Z,21.03
2023-05-06T11:26:18.777Z,20.97
2023-05-06T11:28:47.521Z,20.90
2023-05-06T11:31:14.786Z,20.39
2023-05-06T11:33:46.946Z,20.21
2023-05-06T11:36:21.125Z,20.08
2023-05-06T11:38:48.030Z,20.18
2023-05-06T11:41:15.850Z,20.23
2023-05-06T11:43:47.397Z,19.95
2023-05-06T11:46:14.056Z,19.73
2023-05-06T11:48:40.414Z,19.87
2023-05-06T11:51:08.162Z,19.29
2023-05-06T11:53:34.982Z,19.74
2023-05-06T11:56:01.742Z,19.89
2023-05-06T11:58:29.355Z,19.56
2023-05-06T12:00:58.436Z,19.18
2023-05-06T12:03:27.349Z,19.21
2023-05-06T12:05:55.351Z,19.30
2023-05-06T12:08:28.486Z,18.95
2023-05-06T12:10:59.282Z,18.95
2023-05-06T12:13:27.689Z,19.06
2023-05-06T12:15:58.249Z,19.19
2023-05-06T12:18:26.153Z,19.17
2023-05-06T12:20:55.084Z,19.23
2023-05-06T12:23:22.075Z,19.35
2023-05-06T12:26:04.069Z,19.18
2023-05-06T12:28:32.866Z,19.13
2023-05-06T12:31:00.664Z,19.37
2023-05-06T12:33:27.372Z,19.82
2023-05-06T12:35:57.006Z,19.86
2023-05-06T12:38:23.885Z,20.38
2023-05-06T12:40:54.923Z,21.28
2023-05-06T12:43:31.455Z,21.37
2023-05-06T12:46:06.375Z,21.36
2023-05-06T12:48:33.864Z,21.68
2023-05-06T12:51:00.321Z,21.61
2023-05-06T12:53:33.143Z,21.88
2023-05-06T12:55:59.773Z,21.84
2023-05-06T12:58:26.386Z,21.91
2023-05-06T13:00:52.979Z,21.83
2023-05-06T13:03:20.083Z,21.79
2023-05-06T13:05:49.816Z,21.58
2023-05-06T13:08:16.409Z,21.71
2023-05-06T13:10:43.219Z,21.81
2023-05-06T13:13:09.875Z,22.08
2023-05-06T13:15:37.579Z,22.21
2023-05-06T13:18:05.048Z,22.06
2023-05-06T13:20:32.360Z,21.94
2023-05-06T13:22:59.230Z,22.22
2023-05-06T13:25:25.821Z,21.85
2023-05-06T13:27:52.963Z,21.77
2023-05-06T13:30:19.623Z,21.33
2023-05-06T13:32:47.337Z,21.36
2023-05-06T13:35:14.382Z,21.55
2023-05-06T13:37:40.969Z,21.47
2023-05-06T13:40:08.523Z,21.32
2023-05-06T13:42:36.184Z,21.63
2023-05-06T13:45:02.691Z,21.38
2023-05-06T13:47:29.568Z,21.43
2023-05-06T13:49:55.985Z,21.47
2023-05-06T13:52:22.768Z,21.01
2023-05-06T13:54:49.624Z,21.30
2023-05-06T13:57:17.367Z,21.15
2023-05-06T13:59:44.100Z,20.95
2023-05-06T14:02:11.540Z,20.86
2023-05-06T14:04:38.179Z,20.55
2023-05-06T14:07:05.236Z,19.90
2023-05-06T14:09:31.733Z,19.06
2023-05-06T14:11:58.237Z,18.70
2023-05-06T14:14:24.600Z,18.60
2023-05-06T14:16:54.407Z,18.31
2023-05-06T14:19:21.316Z,18.01
2023-05-06T14:21:47.773Z,17.65
2023-05-06T14:24:14.252Z,17.44
2023-05-06T14:26:41.263Z,17.10
2023-05-06T14:29:07.816Z,16.88
2023-05-06T14:31:36.244Z,16.72
2023-05-06T14:34:03.064Z,16.44
2023-05-06T14:36:29.874Z,16.02
2023-05-06T14:38:56.643Z,15.82
2023-05-06T14:41:23.721Z,15.67
2023-05-06T14:43:50.717Z,15.66
2023-05-06T14:46:17.740Z,15.79
2023-05-06T14:48:45.356Z,15.87
2023-05-06T14:51:11.993Z,15.99
2023-05-06T14:53:38.861Z,15.92
2023-05-06T14:56:07.281Z,15.82
2023-05-06T14:58:33.754Z,15.92
2023-05-06T15:01:00.725Z,15.87
2023-05-06T15:03:27.390Z,15.69
2023-05-06T15:05:53.932Z,15.77
2023-05-06T15:08:20.711Z,16.09
2023-05-06T15:10:49.662Z,16.06
2023-05-06T15:13:16.212Z,15.97
2023-05-06T15:15:42.871Z,16.12
2023-05-06T15:18:10.612Z,16.03
2023-05-06T15:20:37.019Z,15.86
2023-05-06T15:23:03.812Z,16.18
2023-05-06T15:25:35.549Z,15.91
2023-05-06T15:28:04.352Z,16.31
2023-05-06T15:30:30.992Z,16.22
2023-05-06T15:32:57.561Z,16.38
2023-05-06T15:35:24.224Z,16.34
2023-05-06T15:37:55.360Z,16.25
2023-05-06T15:40:25.399Z,16.20
2023-05-06T15:42:52.414Z,15.94
2023-05-06T15:45:21.611Z,16.12
2023-05-06T15:47:48.509Z,15.92
2023-05-06T15:50:28.906Z,15.82
2023-05-06T15:52:58.957Z,15.65
2023-05-06T15:55:26.212Z,15.62
2023-05-06T15:57:54.695Z,15.65
2023-05-06T16:00:22.025Z,15.89
2023-05-06T16:03:09.830Z,15.59
2023-05-06T16:05:38.309Z,15.62
2023-05-06T16:08:05.321Z,15.45
2023-05-06T16:10:31.858Z,15.42
2023-05-06T16:12:58.584Z,15.57
2023-05-06T16:15:25.349Z,15.58
2023-05-06T16:17:51.850Z,15.47
2023-05-06T16:20:18.479Z,15.37
2023-05-06T16:22:49.950Z,15.55
2023-05-06T16:25:16.477Z,15.50
2023-05-06T16:27:43.040Z,15.61
2023-05-06T16:30:10.115Z,15.52
2023-05-06T16:32:37.170Z,15.65
2023-05-06T16:35:03.757Z,15.80
2023-05-06T16:37:31.295Z,15.45
2023-05-06T16:39:58.013Z,15.25
2023-05-06T16:42:24.581Z,15.38
2023-05-06T16:44:51.510Z,15.39
2023-05-06T16:47:23.143Z,15.50
2023-05-06T16:49:50.235Z,15.28
2023-05-06T16:52:17.726Z,15.23
2023-05-06T16:54:44.548Z,15.39
2023-05-06T16:57:11.147Z,15.18
2023-05-06T16:59:38.002Z,14.95
2023-05-06T17:02:04.917Z,15.00
2023-05-06T17:04:31.326Z,15.31
2023-05-06T17:06:58.028Z,15.31
2023-05-06T17:09:24.584Z,15.26
2023-05-06T17:11:51.272Z,15.07
2023-05-06T17:14:19.696Z,14.99
2023-05-06T17:16:47.181Z,15.21
2023-05-06T17:19:13.690Z,15.03
2023-05-06T17:21:40.711Z,15.04
2023-05-06T17:24:07.236Z,15.01
2023-05-06T17:26:34.849Z,14.95
2023-05-06T17:29:01.518Z,14.92
2023-05-06T17:31:28.531Z,14.87
2023-05-06T17:33:56.313Z,14.81
2023-05-06T17:36:23.354Z,14.85
2023-05-06T17:39:01.038Z,14.83
2023-05-06T17:41:27.853Z,14.87
2023-05-06T17:43:54.385Z,14.87
2023-05-06T17:46:21.031Z,14.87
2023-05-06T17:48:48.961Z,14.84
2023-05-06T17:51:15.756Z,14.94
2023-05-06T17:53:42.515Z,14.89
2023-05-06T17:56:09.359Z,14.88
2023-05-06T17:58:35.934Z,14.89
2023-05-06T18:01:02.897Z,14.94
2023-05-06T18:03:30.037Z,14.84
2023-05-06T18:05:57.021Z,14.77
2023-05-06T18:08:23.830Z,14.69
2023-05-06T18:10:50.372Z,14.76
2023-05-06T18:13:17.178Z,14.65
2023-05-06T18:15:44.071Z,14.71
2023-05-06T18:18:10.603Z,14.62
2023-05-06T18:20:37.436Z,14.54
2023-05-06T18:23:03.908Z,14.51
2023-05-06T18:25:30.427Z,14.44
2023-05-06T18:27:57.727Z,14.36
2023-05-06T18:30:24.323Z,14.42
2023-05-06T18:32:52.313Z,14.33
2023-05-06T18:35:20.071Z,14.31
2023-05-06T18:37:46.699Z,14.40
2023-05-06T18:40:14.576Z,14.44
2023-05-06T18:42:41.262Z,14.51
2023-05-06T18:45:08.235Z,14.53
2023-05-06T18:47:36.865Z,14.38
2023-05-06T18:50:03.786Z,14.33
2023-05-06T18:52:30.684Z,14.23
2023-05-06T18:54:57.225Z,14.25
2023-05-06T18:57:26.698Z,14.18
2023-05-06T18:59:53.347Z,14.23
2023-05-06T19:02:19.722Z,14.23
2023-05-06T19:04:46.114Z,14.33
2023-05-06T19:07:14.354Z,14.10
2023-05-06T19:09:42.978Z,13.91
2023-05-06T19:12:09.449Z,13.89
2023-05-06T19:14:35.895Z,14.12
2023-05-06T19:17:05.142Z,14.01
2023-05-06T19:19:31.845Z,13.88
2023-05-06T19:21:59.681Z,13.96
2023-05-06T19:24:26.642Z,14.00
2023-05-06T19:26:53.264Z,13.99
2023-05-06T19:29:19.801Z,13.95
2023-05-06T19:31:46.579Z,13.96
2023-05-06T19:34:13.428Z,13.67
2023-05-06T19:36:39.988Z,13.87
2023-05-06T19:39:06.609Z,13.84
2023-05-06T19:41:33.460Z,13.74
2023-05-06T19:43:59.905Z,13.61
2023-05-06T19:46:27.376Z,13.61
2023-05-06T19:48:54.383Z,13.70
2023-05-06T19:51:21.281Z,13.58
2023-05-06T19:53:48.940Z,13.67
2023-05-06T19:56:17.075Z,13.51
2023-05-06T19:58:45.491Z,13.45
2023-05-06T20:01:12.413Z,13.53
2023-05-06T20:03:39.250Z,13.44
2023-05-06T20:06:06.507Z,13.69
2023-05-06T20:08:33.067Z,13.66
2023-05-06T20:10:59.705Z,13.49
2023-05-06T20:13:26.727Z,13.57
2023-05-06T20:15:54.884Z,13.71
2023-05-06T20:18:21.552Z,13.79
2023-05-06T20:20:48.030Z,13.64
2023-05-06T20:23:14.920Z,13.65
2023-05-06T20:25:42.286Z,13.69
2023-05-06T20:28:08.833Z,13.56
2023-05-06T20:30:35.390Z,13.30
2023-05-06T20:33:01.982Z,13.32
2023-05-06T20:35:28.626Z,13.45
2023-05-06T20:37:55.984Z,13.39
2023-05-06T20:40:22.806Z,13.32
2023-05-06T20:42:49.777Z,13.38
2023-05-06T20:45:16.409Z,13.37
2023-05-06T20:47:44.247Z,13.42
2023-05-06T20:50:16.677Z,13.03
2023-05-06T20:52:45.819Z,12.81
2023-05-06T20:55:14.672Z,12.84
2023-05-06T20:57:44.801Z,12.89
2023-05-06T21:00:12.205Z,12.86
2023-05-06T21:02:41.331Z,13.00
2023-05-06T21:05:09.500Z,13.11
2023-05-06T21:07:36.418Z,13.10
2023-05-06T21:10:05.579Z,13.14
2023-05-06T21:12:33.550Z,12.89
2023-05-06T21:15:00.725Z,12.70
2023-05-06T21:17:28.036Z,12.57
2023-05-06T21:19:55.207Z,12.58
2023-05-06T21:22:22.541Z,12.47
2023-05-06T21:24:49.682Z,12.39
2023-05-06T21:27:16.548Z,12.40
2023-05-06T21:29:43.195Z,12.22
2023-05-06T21:32:09.964Z,12.23
2023-05-06T21:34:36.703Z,12.21
2023-05-06T21:37:03.332Z,12.17
2023-05-06T21:39:29.843Z,12.35
2023-05-06T21:41:56.486Z,12.24
2023-05-06T21:44:22.932Z,12.35
2023-05-06T21:46:49.472Z,12.36
2023-05-06T21:49:16.133Z,12.38
2023-05-06T21:51:42.914Z,12.29
2023-05-06T21:54:09.871Z,12.23
2023-05-06T21:56:36.296Z,12.10
2023-05-06T21:59:02.928Z,12.02
2023-05-06T22:01:29.516Z,12.14
2023-05-06T22:03:56.562Z,12.24
2023-05-06T22:06:24.442Z,12.16
2023-05-06T22:08:52.004Z,12.12
2023-05-06T22:11:19.925Z,12.10
2023-05-06T22:13:50.030Z,12.11
2023-05-06T22:16:17.179Z,12.30
2023-05-06T22:18:45.786Z,12.08
2023-05-06T22:21:12.371Z,11.97
2023-05-06T22:23:40.448Z,11.97
2023-05-06T22:26:07.184Z,11.87
2023-05-06T22:28:34.077Z,11.91
2023-05-06T22:31:01.022Z,11.83
2023-05-06T22:33:27.713Z,11.79
2023-05-06T22:35:55.452Z,11.81
2023-05-06T22:38:22.280Z,11.79
2023-05-06T22:40:49.010Z,11.75
2023-05-06T22:43:15.718Z,11.73
2023-05-06T22:45:42.337Z,11.76
2023-05-06T22:48:09.070Z,11.75
2023-05-06T22:50:36.444Z,11.76
2023-05-06T22:53:13.741Z,11.80
2023-05-06T22:55:41.809Z,11.82
2023-05-06T22:58:08.838Z,11.80
2023-05-06T23:00:35.361Z,11.80
2023-05-06T23:03:03.006Z,11.77
2023-05-06T23:05:29.740Z,11.78
2023-05-06T23:07:56.585Z,11.78
2023-05-06T23:10:23.041Z,11.71
2023-05-06T23:12:49.543Z,11.62
2023-05-06T23:15:16.120Z,11.57
2023-05-06T23:17:43.128Z,11.62
2023-05-06T23:20:11.841Z,11.64
2023-05-06T23:22:38.886Z,11.67
2023-05-06T23:25:07.954Z,11.77
2023-05-06T23:27:36.015Z,11.77
2023-05-06T23:30:02.639Z,11.73
2023-05-06T23:32:29.085Z,11.82
2023-05-06T23:34:55.912Z,11.90
2023-05-06T23:37:22.677Z,11.95
2023-05-06T23:39:49.384Z,11.82
2023-05-06T23:42:16.179Z,11.78
2023-05-06T23:44:42.646Z,11.77
2023-05-06T23:47:09.776Z,11.82
2023-05-06T23:49:37.033Z,11.80
2023-05-06T23:52:03.778Z,11.85
2023-05-06T23:54:30.305Z,11.83
2023-05-06T23:56:57.151Z,11.75
2023-05-06T23:59:23.623Z,11.73
